createdAt,value
2019-04-21T00:01:05.718Z,52.9168
2019-04-21T00:02:09.193Z,53.1365
2019-04-21T00:03:18.219Z,60.2121
2019-04-21T00:04:34.571Z,61.4298
2019-04-21T00:05:52.410Z,60.6836
2019-04-21T00:07:00.532Z,60.0855
2019-04-21T00:08:12.829Z,62.6520
2019-04-21T00:09:22.613Z,61.9211
2019-04-21T00:10:28.708Z,64.4556
2019-04-21T00:11:32.984Z,62.6749
2019-04-21T00:12:37.625Z,56.5377
2019-04-21T00:13:42.769Z,58.3398
2019-04-21T00:14:47.152Z,63.5508
2019-04-21T00:15:49.503Z,63.3936
2019-04-21T00:16:57.430Z,61.8799
2019-04-21T00:18:02.429Z,61.5030
2019-04-21T00:19:12.990Z,62.4460
2019-04-21T00:20:26.082Z,60.3830
2019-04-21T00:21:31.532Z,59.0051
2019-04-21T00:22:44.454Z,58.2574
2019-04-21T00:23:59.078Z,62.4048
2019-04-21T00:25:04.129Z,61.3107
2019-04-21T00:26:04.727Z,62.4475
2019-04-21T00:27:22.941Z,60.2777
2019-04-21T00:28:39.093Z,63.2471
2019-04-21T00:29:42.519Z,63.6469
2019-04-21T00:30:44.392Z,65.6046
2019-04-21T00:31:51.413Z,64.6448
2019-04-21T00:32:53.987Z,63.5004
2019-04-21T00:33:51.955Z,62.5895
2019-04-21T00:35:03.312Z,63.0930
2019-04-21T00:36:11.276Z,57.8775
2019-04-21T00:37:24.057Z,60.9308
2019-04-21T00:38:57.425Z,55.8236
2019-04-21T00:39:55.707Z,54.2428
2019-04-21T00:41:00.558Z,55.1446
2019-04-21T00:42:06.696Z,61.2573
2019-04-21T00:43:11.741Z,63.4913
2019-04-21T00:44:12.607Z,61.3703
2019-04-21T00:45:26.644Z,61.2070
2019-04-21T00:46:32.313Z,64.8081
2019-04-21T00:47:38.711Z,63.8163
2019-04-21T00:48:54.107Z,58.5595
2019-04-21T00:50:00.765Z,53.0892
2019-04-21T00:51:33.309Z,53.3608
2019-04-21T00:52:29.118Z,53.0083
2019-04-21T00:53:33.527Z,51.0887
2019-04-21T00:54:44.110Z,59.0463
2019-04-21T00:55:44.581Z,58.8083
2019-04-21T00:56:56.728Z,56.8063
2019-04-21T00:58:08.418Z,59.2142
2019-04-21T00:59:11.709Z,64.7639
2019-04-21T01:00:20.343Z,65.5177
2019-04-21T01:01:21.355Z,64.2771
2019-04-21T01:02:32.971Z,65.8717
2019-04-21T01:03:43.628Z,63.6271
2019-04-21T01:04:52.497Z,56.2356
2019-04-21T01:06:14.258Z,59.2203
2019-04-21T01:07:05.596Z,55.7259
2019-04-21T01:08:11.503Z,56.5103
2019-04-21T01:09:15.215Z,62.4475
2019-04-21T01:10:19.794Z,60.3632
2019-04-21T01:11:33.290Z,60.2731
2019-04-21T01:12:48.954Z,61.5534
2019-04-21T01:13:58.281Z,64.5853
2019-04-21T01:15:04.081Z,61.4084
2019-04-21T01:16:14.764Z,62.1271
2019-04-21T01:17:19.304Z,62.6612
2019-04-21T01:18:27.630Z,61.2390
2019-04-21T01:19:32.958Z,68.1559
2019-04-21T01:20:21.197Z,69.7124
2019-04-21T01:21:24.180Z,63.9200
2019-04-21T01:22:27.180Z,62.5879
2019-04-21T01:23:29.745Z,60.0488
2019-04-21T01:24:36.174Z,60.9186
2019-04-21T01:25:44.888Z,65.7710
2019-04-21T01:26:59.610Z,66.5339
2019-04-21T01:28:15.108Z,67.4678
2019-04-21T01:29:20.912Z,56.7941
2019-04-21T01:30:29.603Z,65.6504
2019-04-21T01:31:36.514Z,61.1109
2019-04-21T01:32:51.580Z,60.0244
2019-04-21T01:33:56.165Z,65.4215
2019-04-21T01:35:02.669Z,63.0198
2019-04-21T01:36:08.235Z,57.6944
2019-04-21T01:37:27.251Z,55.3658
2019-04-21T01:38:34.348Z,58.5321
2019-04-21T01:39:43.642Z,65.4398
2019-04-21T01:40:44.701Z,56.1837
2019-04-21T01:41:50.916Z,53.0938
2019-04-21T01:43:00.319Z,53.8598
2019-04-21T01:44:05.034Z,53.9635
2019-04-21T01:45:14.720Z,55.5123
2019-04-21T01:46:24.897Z,53.3242
2019-04-21T01:47:27.578Z,57.9156
2019-04-21T01:48:37.483Z,56.7605
2019-04-21T01:49:39.505Z,56.9772
2019-04-21T01:50:51.087Z,55.0683
2019-04-21T01:52:15.163Z,55.6435
2019-04-21T01:53:22.503Z,58.5199
2019-04-21T01:54:23.502Z,54.2885
2019-04-21T01:55:30.751Z,55.1904
2019-04-21T01:56:34.039Z,55.1263
2019-04-21T01:57:37.356Z,55.1598
2019-04-21T01:58:42.915Z,59.2294
2019-04-21T01:59:51.590Z,54.6960
2019-04-21T02:01:03.522Z,55.1873
2019-04-21T02:02:19.419Z,56.6690
2019-04-21T02:03:41.647Z,58.3169
2019-04-21T02:04:39.667Z,53.5378
2019-04-21T02:05:44.220Z,54.5281
2019-04-21T02:06:50.484Z,56.4080
2019-04-21T02:07:54.675Z,54.1482
2019-04-21T02:09:06.747Z,53.4417
2019-04-21T02:10:13.669Z,55.3201
2019-04-21T02:11:26.123Z,60.9079
2019-04-21T02:12:29.979Z,62.9969
2019-04-21T02:13:35.196Z,60.6607
2019-04-21T02:14:50.535Z,60.9537
2019-04-21T02:15:56.105Z,62.9099
2019-04-21T02:17:00.670Z,62.1073
2019-04-21T02:18:10.489Z,66.2638
2019-04-21T02:19:13.978Z,67.2709
2019-04-21T02:20:18.238Z,61.2207
2019-04-21T02:21:31.705Z,61.5869
2019-04-21T02:22:59.131Z,67.8157
2019-04-21T02:23:56.083Z,62.9877
2019-04-21T02:25:06.361Z,63.8285
2019-04-21T02:26:12.718Z,61.4572
2019-04-21T02:28:30.863Z,55.2468
2019-04-21T02:29:33.040Z,53.5210
2019-04-21T02:32:10.531Z,63.2471
2019-04-21T02:33:08.704Z,55.2697
2019-04-21T02:34:25.178Z,59.0967
2019-04-21T02:35:42.465Z,59.4659
2019-04-21T02:38:44.716Z,56.8383
2019-04-21T02:39:56.720Z,64.6067
2019-04-21T02:42:11.529Z,55.0591
2019-04-21T02:43:19.112Z,61.1780
2019-04-21T02:44:26.476Z,62.9862
2019-04-21T02:45:29.683Z,64.6159
2019-04-21T02:46:42.152Z,63.9170
2019-04-21T02:49:13.262Z,56.4370
2019-04-21T02:51:10.421Z,59.9100
2019-04-21T02:54:28.601Z,63.2609
2019-04-21T02:55:44.181Z,61.6953
2019-04-21T02:58:09.787Z,64.2725
2019-04-21T03:00:28.974Z,60.9964
2019-04-21T03:01:31.261Z,64.0635
2019-04-21T03:02:42.156Z,62.4979
2019-04-21T03:03:41.823Z,62.1042
2019-04-21T03:05:58.650Z,64.5335
2019-04-21T03:08:22.946Z,64.0314
2019-04-21T03:09:24.394Z,65.0660
2019-04-21T03:10:36.095Z,64.6311
2019-04-21T03:11:41.379Z,58.4009
2019-04-21T03:12:56.925Z,59.0951
2019-04-21T03:14:11.076Z,58.4375
2019-04-21T03:15:06.231Z,59.3698
2019-04-21T03:16:21.451Z,57.7173
2019-04-21T03:17:21.811Z,55.7916
2019-04-21T03:19:44.809Z,60.8392
2019-04-21T03:20:42.421Z,64.1352
2019-04-21T03:21:57.442Z,61.6724
2019-04-21T03:23:09.390Z,57.7539
2019-04-21T03:24:13.796Z,60.3647
2019-04-21T03:25:26.882Z,63.0152
2019-04-21T03:27:40.230Z,58.6053
2019-04-21T03:28:37.418Z,56.9894
2019-04-21T03:29:55.203Z,58.9807
2019-04-21T03:32:31.825Z,59.0082
2019-04-21T03:34:48.346Z,61.9944
2019-04-21T03:35:58.324Z,60.9964
2019-04-21T03:36:56.508Z,64.7578
2019-04-21T03:38:55.396Z,63.4897
2019-04-21T03:40:05.256Z,63.5920
2019-04-21T03:41:10.557Z,60.1389
2019-04-21T03:42:30.832Z,61.2284
2019-04-21T03:44:39.476Z,64.4022
2019-04-21T03:47:01.729Z,62.7680
2019-04-21T03:49:12.595Z,64.5167
2019-04-21T03:50:14.651Z,66.5843
2019-04-21T03:54:59.453Z,64.7166
2019-04-21T03:55:53.334Z,63.6149
2019-04-21T03:57:21.809Z,65.6107
2019-04-21T03:58:16.245Z,69.9763
2019-04-21T03:59:11.177Z,65.0233
2019-04-21T04:00:42.647Z,67.8447
2019-04-21T04:01:32.809Z,68.8548
2019-04-21T04:03:11.854Z,66.0624
2019-04-21T04:06:09.621Z,65.6977
2019-04-21T04:07:28.863Z,66.3188
2019-04-21T04:08:31.454Z,71.8044
2019-04-21T04:10:42.761Z,67.3594
2019-04-21T04:11:54.758Z,66.8101
2019-04-21T04:12:58.757Z,64.3473
2019-04-21T04:14:14.134Z,60.4959
2019-04-21T04:15:16.094Z,65.8198
2019-04-21T04:16:16.988Z,60.1816
2019-04-21T04:19:56.147Z,56.8200
2019-04-21T04:21:14.411Z,55.9701
2019-04-21T04:22:09.292Z,57.4929
2019-04-21T04:23:08.095Z,56.5911
2019-04-21T04:24:31.620Z,58.5336
2019-04-21T04:25:21.441Z,56.1059
2019-04-21T04:26:37.466Z,55.0622
2019-04-21T04:27:54.046Z,56.8307
2019-04-21T04:30:04.285Z,59.3530
2019-04-21T04:31:06.190Z,59.2111
2019-04-21T04:32:10.574Z,58.2025
2019-04-21T04:33:34.292Z,59.1867
2019-04-21T04:34:29.285Z,59.4766
2019-04-21T04:35:46.633Z,66.5400
2019-04-21T04:36:58.528Z,66.2181
2019-04-21T04:39:18.009Z,62.3682
2019-04-21T04:40:10.446Z,62.2644
2019-04-21T04:41:24.947Z,61.2055
2019-04-21T04:42:31.986Z,62.4063
2019-04-21T04:43:50.211Z,60.7385
2019-04-21T04:45:44.112Z,65.2384
2019-04-21T04:48:10.868Z,63.4256
2019-04-21T04:49:34.350Z,64.0360
2019-04-21T04:50:19.723Z,69.4240
2019-04-21T04:51:33.382Z,62.8672
2019-04-21T04:52:38.317Z,63.5279
2019-04-21T04:53:44.030Z,66.3111
2019-04-21T04:54:55.050Z,61.5000
2019-04-21T04:56:03.686Z,64.0543
2019-04-21T04:58:26.014Z,62.3316
2019-04-21T04:59:32.531Z,62.9236
2019-04-21T05:00:36.947Z,66.8910
2019-04-21T05:02:05.027Z,62.2003
2019-04-21T05:02:48.389Z,63.0198
2019-04-21T05:04:01.870Z,58.8708
2019-04-21T05:06:26.097Z,59.1745
2019-04-21T05:07:27.444Z,61.6541
2019-04-21T05:08:49.341Z,63.1296
2019-04-21T05:12:58.704Z,58.1262
2019-04-21T05:15:12.653Z,59.3835
2019-04-21T05:16:36.606Z,58.8022
2019-04-21T05:18:50.279Z,60.1358
2019-04-21T05:20:05.450Z,58.8800
2019-04-21T05:21:10.573Z,60.1572
2019-04-21T05:22:05.526Z,60.1038
2019-04-21T05:23:08.998Z,60.8804
2019-04-21T05:24:13.563Z,59.4659
2019-04-21T05:25:19.556Z,57.9110
2019-04-21T05:26:24.622Z,62.5376
2019-04-21T05:27:32.049Z,65.4032
2019-04-21T05:29:59.985Z,60.9125
2019-04-21T05:31:09.074Z,61.0956
2019-04-21T05:32:18.465Z,63.1052
2019-04-21T05:33:20.858Z,59.2004
2019-04-21T05:34:29.038Z,56.6873
2019-04-21T05:35:34.402Z,57.7371
2019-04-21T05:36:38.168Z,59.3606
2019-04-21T05:37:50.323Z,54.6059
2019-04-21T05:38:56.615Z,60.1572
2019-04-21T05:39:57.966Z,58.9441
2019-04-21T05:41:05.122Z,56.3546
2019-04-21T05:42:08.869Z,61.5915
2019-04-21T05:43:28.455Z,55.7504
2019-04-21T05:44:41.420Z,55.2773
2019-04-21T05:45:48.786Z,61.7685
2019-04-21T05:46:59.464Z,57.2793
2019-04-21T05:48:11.624Z,56.0433
2019-04-21T05:49:10.778Z,57.9004
2019-04-21T05:50:11.455Z,59.0906
2019-04-21T05:51:20.509Z,55.5840
2019-04-21T05:52:26.583Z,58.0530
2019-04-21T05:53:36.250Z,56.9070
2019-04-21T05:56:01.719Z,60.2914
2019-04-21T05:57:05.805Z,61.2757
2019-04-21T05:58:27.267Z,59.3027
2019-04-21T05:59:21.693Z,54.2336
2019-04-21T06:00:39.416Z,55.5123
2019-04-21T06:01:44.572Z,54.2199
2019-04-21T06:02:52.035Z,59.8657
2019-04-21T06:04:00.217Z,54.4915
2019-04-21T06:05:18.412Z,55.7488
2019-04-21T06:06:14.001Z,60.6805
2019-04-21T06:07:23.086Z,60.7813
2019-04-21T06:08:25.538Z,54.2855
2019-04-21T06:09:38.148Z,59.7879
2019-04-21T06:10:47.366Z,57.6867
2019-04-21T06:11:51.250Z,63.9261
2019-04-21T06:12:59.918Z,57.0672
2019-04-21T06:14:08.101Z,60.7904
2019-04-21T06:15:14.147Z,58.8891
2019-04-21T06:16:21.448Z,55.8495
2019-04-21T06:18:58.745Z,66.6667
2019-04-21T06:19:49.510Z,59.0723
2019-04-21T06:20:59.778Z,57.4426
2019-04-21T06:22:03.333Z,54.1146
2019-04-21T06:23:12.015Z,55.7534
2019-04-21T06:24:17.357Z,60.1404
2019-04-21T06:27:45.906Z,62.3285
2019-04-21T06:29:03.934Z,64.5579
2019-04-21T06:30:01.896Z,59.4171
2019-04-21T06:33:28.336Z,62.8351
2019-04-21T06:34:43.830Z,55.3277
2019-04-21T06:35:48.519Z,60.4883
2019-04-21T06:36:50.609Z,60.5478
2019-04-21T06:37:55.021Z,54.1421
2019-04-21T06:40:23.089Z,64.3961
2019-04-21T06:41:21.575Z,61.3382
2019-04-21T06:42:26.976Z,58.6526
2019-04-21T06:43:46.732Z,54.2580
2019-04-21T06:44:48.380Z,57.4533
2019-04-21T06:46:08.905Z,59.8245
2019-04-21T06:47:00.876Z,60.1358
2019-04-21T06:48:12.274Z,59.9664
2019-04-21T06:49:10.391Z,53.9681
2019-04-21T06:50:22.851Z,60.2625
2019-04-21T06:51:33.763Z,61.0834
2019-04-21T06:53:56.044Z,64.3153
2019-04-21T06:54:57.266Z,56.7895
2019-04-21T06:56:08.168Z,58.0346
2019-04-21T06:57:10.298Z,53.3364
2019-04-21T06:58:18.400Z,60.1892
2019-04-21T06:59:29.382Z,55.0546
2019-04-21T07:00:31.859Z,52.4590
2019-04-21T07:01:55.087Z,52.6223
2019-04-21T07:04:05.754Z,51.8776
2019-04-21T07:05:07.934Z,53.9010
2019-04-21T07:06:13.084Z,51.7861
2019-04-21T07:07:26.367Z,57.2061
2019-04-21T07:08:34.609Z,53.0159
2019-04-21T07:09:41.363Z,52.6085
2019-04-21T07:10:44.856Z,60.5188
2019-04-21T07:11:56.282Z,51.7174
2019-04-21T07:13:03.942Z,54.7341
2019-04-21T07:14:26.018Z,56.0616
2019-04-21T07:15:27.934Z,61.8555
2019-04-21T07:16:36.813Z,58.9670
2019-04-21T07:17:32.626Z,63.2944
2019-04-21T07:18:51.432Z,59.3530
2019-04-21T07:19:55.381Z,60.0671
2019-04-21T07:21:02.725Z,54.1878
2019-04-21T07:22:12.712Z,56.1212
2019-04-21T07:23:20.495Z,59.0494
2019-04-21T07:24:25.079Z,53.6034
2019-04-21T07:25:32.800Z,57.2244
2019-04-21T07:26:45.973Z,59.5254
2019-04-21T07:29:02.837Z,52.6238
2019-04-21T07:30:04.233Z,53.2326
2019-04-21T07:31:37.760Z,56.0006
2019-04-21T07:32:20.892Z,59.5315
2019-04-21T07:33:50.626Z,56.1379
2019-04-21T07:34:38.536Z,53.8079
2019-04-21T07:35:49.161Z,53.2967
2019-04-21T07:36:55.938Z,52.8481
2019-04-21T07:37:57.914Z,52.8832
2019-04-21T07:39:09.051Z,54.0642
2019-04-21T07:40:13.501Z,52.6726
2019-04-21T07:41:18.516Z,54.4579
2019-04-21T07:42:28.105Z,53.0632
2019-04-21T07:43:34.353Z,53.2174
2019-04-21T07:44:39.238Z,55.0591
2019-04-21T07:45:49.866Z,54.5968
2019-04-21T07:46:58.520Z,52.9259
2019-04-21T07:48:12.700Z,56.0708
2019-04-21T07:49:20.235Z,54.3984
2019-04-21T07:50:27.389Z,53.4966
2019-04-21T07:51:43.743Z,54.6380
2019-04-21T07:52:49.022Z,54.4076
2019-04-21T07:54:08.404Z,55.0896
2019-04-21T07:55:15.347Z,54.3938
2019-04-21T07:55:51.028Z,52.9076
2019-04-21T07:57:14.384Z,56.0006
2019-04-21T07:58:24.221Z,51.7632
2019-04-21T07:59:45.900Z,57.6623
2019-04-21T08:00:52.683Z,55.1766
2019-04-21T08:01:50.804Z,53.0617
2019-04-21T08:02:54.278Z,52.6604
2019-04-21T08:04:16.518Z,54.6456
2019-04-21T08:06:28.284Z,51.6533
2019-04-21T08:07:41.767Z,54.5327
2019-04-21T08:08:36.742Z,51.5282
2019-04-21T08:09:46.756Z,51.0262
2019-04-21T08:10:50.632Z,53.4203
2019-04-21T08:12:00.319Z,55.1965
2019-04-21T08:13:09.537Z,52.3857
2019-04-21T08:14:23.909Z,49.5964
2019-04-21T08:16:36.772Z,52.1111
2019-04-21T08:17:41.495Z,55.2422
2019-04-21T08:18:52.158Z,59.9481
2019-04-21T08:19:53.017Z,50.6355
2019-04-21T08:21:06.252Z,52.5902
2019-04-21T08:22:20.238Z,55.4162
2019-04-21T08:23:25.614Z,52.6741
2019-04-21T08:24:40.584Z,52.4117
2019-04-21T08:25:45.972Z,50.1411
2019-04-21T08:26:55.737Z,51.4336
2019-04-21T08:29:14.507Z,50.8644
2019-04-21T08:30:14.290Z,49.9733
2019-04-21T08:31:25.756Z,50.6416
2019-04-21T08:32:36.299Z,50.1656
2019-04-21T08:33:46.298Z,48.9281
2019-04-21T08:34:55.562Z,49.4514
2019-04-21T08:36:11.001Z,51.3222
2019-04-21T08:37:02.719Z,51.4687
2019-04-21T08:38:10.355Z,49.7581
2019-04-21T08:39:24.077Z,49.2638
2019-04-21T08:40:33.195Z,48.9464
2019-04-21T08:41:37.423Z,51.3787
2019-04-21T08:42:38.292Z,47.0939
2019-04-21T08:44:01.683Z,48.9326
2019-04-21T08:45:00.207Z,48.6961
2019-04-21T08:46:08.188Z,53.5119
2019-04-21T08:47:15.857Z,46.9932
2019-04-21T08:48:23.964Z,46.9551
2019-04-21T08:49:26.516Z,49.1173
2019-04-21T08:50:41.500Z,48.7129
2019-04-21T08:51:53.906Z,44.8005
2019-04-21T08:53:08.938Z,44.5716
2019-04-21T08:54:01.421Z,45.9159
2019-04-21T08:55:12.176Z,44.0894
2019-04-21T08:57:30.228Z,45.9174
2019-04-21T08:58:34.446Z,44.8035
2019-04-21T08:59:47.134Z,44.4984
2019-04-21T09:00:56.355Z,43.8254
2019-04-21T09:01:55.256Z,42.6627
2019-04-21T09:03:11.191Z,43.8941
2019-04-21T09:04:13.182Z,44.3549
2019-04-21T09:05:17.653Z,41.9806
2019-04-21T09:06:42.001Z,44.7272
2019-04-21T09:07:41.313Z,42.4826
2019-04-21T09:08:45.750Z,45.1118
2019-04-21T09:09:52.851Z,40.9461
2019-04-21T09:10:59.609Z,45.1118
2019-04-21T09:12:10.339Z,41.4664
2019-04-21T09:13:17.227Z,42.9862
2019-04-21T09:14:28.836Z,44.6677
2019-04-21T09:15:32.453Z,49.8726
2019-04-21T09:16:39.698Z,43.1846
2019-04-21T09:17:40.838Z,45.4688
2019-04-21T09:18:52.811Z,45.7282
2019-04-21T09:20:13.623Z,44.5151
2019-04-21T09:21:13.468Z,44.2466
2019-04-21T09:22:18.225Z,43.7415
2019-04-21T09:23:28.789Z,45.1240
2019-04-21T09:24:33.127Z,44.8081
2019-04-21T09:25:48.265Z,43.9979
2019-04-21T09:26:52.725Z,44.5670
2019-04-21T09:28:00.655Z,44.9195
2019-04-21T09:29:00.729Z,43.9796
2019-04-21T09:30:02.662Z,50.6676
2019-04-21T09:31:07.121Z,47.8996
2019-04-21T09:32:17.751Z,45.7938
2019-04-21T09:33:19.184Z,47.5975
2019-04-21T09:34:29.624Z,47.4815
2019-04-21T09:35:31.438Z,43.8712
2019-04-21T09:36:42.629Z,45.5467
2019-04-21T09:37:51.693Z,43.8468
2019-04-21T09:38:59.244Z,44.6403
2019-04-21T09:39:59.524Z,43.5325
2019-04-21T09:41:06.731Z,44.0711
2019-04-21T09:42:11.440Z,45.4719
2019-04-21T09:43:25.876Z,46.0319
2019-04-21T09:44:30.450Z,46.3188
2019-04-21T09:45:30.750Z,44.2084
2019-04-21T09:46:34.181Z,47.7394
2019-04-21T09:47:49.267Z,43.3814
2019-04-21T09:48:56.794Z,46.3249
2019-04-21T09:49:58.453Z,44.9561
2019-04-21T09:51:01.928Z,43.5645
2019-04-21T09:52:08.900Z,45.4536
2019-04-21T09:53:22.675Z,45.7527
2019-04-21T09:54:26.531Z,44.8035
2019-04-21T09:55:36.426Z,43.3310
2019-04-21T09:56:45.442Z,43.3356
2019-04-21T09:57:52.180Z,44.7669
2019-04-21T09:59:04.090Z,43.4623
2019-04-21T10:00:10.061Z,43.3295
2019-04-21T10:01:18.522Z,44.5335
2019-04-21T10:02:32.463Z,44.2924
2019-04-21T10:03:26.379Z,44.0040
2019-04-21T10:04:29.193Z,46.1128
2019-04-21T10:05:32.179Z,43.6377
2019-04-21T10:06:35.175Z,43.3204
2019-04-21T10:07:41.983Z,43.7781
2019-04-21T10:08:50.366Z,44.8234
2019-04-21T10:09:54.597Z,42.6261
2019-04-21T10:10:57.193Z,41.2848
2019-04-21T10:12:00.846Z,41.9806
2019-04-21T10:13:03.264Z,42.4414
2019-04-21T10:14:07.469Z,43.0610
2019-04-21T10:15:10.686Z,42.9953
2019-04-21T10:16:13.322Z,43.5462
2019-04-21T10:17:17.238Z,40.9354
2019-04-21T10:18:21.513Z,42.1164
2019-04-21T10:19:25.374Z,46.1677
2019-04-21T10:20:28.557Z,41.8921
2019-04-21T10:21:31.901Z,42.6444
2019-04-21T10:22:35.185Z,41.2787
2019-04-21T10:23:39.389Z,48.1331
2019-04-21T10:24:42.509Z,43.2059
2019-04-21T10:25:46.311Z,44.3824
2019-04-21T10:26:49.391Z,41.6495
2019-04-21T10:27:52.852Z,44.3641
2019-04-21T10:29:05.764Z,43.7736
2019-04-21T10:30:05.700Z,44.7944
2019-04-21T10:31:09.034Z,40.6561
2019-04-21T10:32:13.394Z,46.1738
2019-04-21T10:33:16.676Z,42.1988
2019-04-21T10:34:19.241Z,39.7864
2019-04-21T10:35:24.348Z,45.0370
2019-04-21T10:36:28.971Z,44.2237
2019-04-21T10:37:45.543Z,46.2104
2019-04-21T10:38:46.388Z,41.7502
2019-04-21T10:39:49.607Z,40.4868
2019-04-21T10:40:52.180Z,45.5192
2019-04-21T10:41:57.207Z,42.7405
2019-04-21T10:43:00.506Z,41.2238
2019-04-21T10:44:03.192Z,38.8815
2019-04-21T10:45:07.348Z,41.6953
2019-04-21T10:46:10.769Z,41.7380
2019-04-21T10:47:12.868Z,41.6175
2019-04-21T10:48:17.176Z,41.9974
2019-04-21T10:49:20.741Z,41.4984
2019-04-21T10:50:24.469Z,41.1597
2019-04-21T10:51:26.759Z,39.6765
2019-04-21T10:52:32.223Z,44.1871
2019-04-21T10:53:36.825Z,47.3350
2019-04-21T10:55:03.374Z,41.0925
2019-04-21T10:56:01.514Z,40.9857
2019-04-21T10:56:55.520Z,51.4336
2019-04-21T10:58:00.197Z,40.0443
2019-04-21T10:59:04.431Z,45.4047
2019-04-21T11:00:09.093Z,41.9379
2019-04-21T11:01:14.248Z,40.9491
2019-04-21T11:02:17.179Z,41.9394
2019-04-21T11:03:20.183Z,46.7353
2019-04-21T11:04:29.883Z,40.5661
2019-04-21T11:05:32.606Z,39.6780
2019-04-21T11:06:36.771Z,41.0269
2019-04-21T11:07:55.162Z,43.9353
2019-04-21T11:08:52.356Z,42.7817
2019-04-21T11:09:58.040Z,40.3540
2019-04-21T11:11:01.614Z,40.8270
2019-04-21T11:12:04.183Z,41.4771
2019-04-21T11:13:08.389Z,40.7797
2019-04-21T11:14:11.805Z,41.4450
2019-04-21T11:15:14.797Z,40.6012
2019-04-21T11:16:17.351Z,43.4592
2019-04-21T11:17:20.204Z,40.3967
2019-04-21T11:18:24.047Z,43.2120
2019-04-21T11:19:28.477Z,39.4339
2019-04-21T11:20:33.022Z,42.9511
2019-04-21T11:21:36.697Z,40.8362
2019-04-21T11:22:40.106Z,38.7793
2019-04-21T11:23:43.868Z,40.7263
2019-04-21T11:24:47.201Z,39.6277
2019-04-21T11:25:51.711Z,40.4059
2019-04-21T11:26:55.834Z,38.4543
2019-04-21T11:28:00.579Z,41.7700
2019-04-21T11:29:05.099Z,39.8978
2019-04-21T11:30:09.533Z,41.5915
2019-04-21T11:31:13.260Z,40.0381
2019-04-21T11:32:16.891Z,40.2640
2019-04-21T11:33:21.331Z,38.7671
2019-04-21T11:34:25.211Z,40.1205
2019-04-21T11:35:28.825Z,40.3738
2019-04-21T11:36:31.333Z,41.2604
2019-04-21T11:37:34.620Z,38.5382
2019-04-21T11:38:55.324Z,38.2620
2019-04-21T11:39:54.564Z,39.3790
2019-04-21T11:40:53.983Z,39.8047
2019-04-21T11:41:59.630Z,37.0520
2019-04-21T11:43:02.189Z,39.4263
2019-04-21T11:44:05.173Z,38.5595
2019-04-21T11:45:10.507Z,39.5209
2019-04-21T11:46:13.180Z,37.2351
2019-04-21T11:47:18.476Z,35.9823
2019-04-21T11:48:21.940Z,36.9650
2019-04-21T11:49:27.634Z,36.3287
2019-04-21T11:50:35.013Z,39.9710
2019-04-21T11:51:38.177Z,37.8882
2019-04-21T11:52:43.099Z,39.5728
2019-04-21T11:53:46.712Z,37.1771
2019-04-21T11:54:50.949Z,34.4533
2019-04-21T11:55:55.554Z,37.9614
2019-04-21T11:57:01.777Z,34.2702
2019-04-21T11:58:07.722Z,34.2092
2019-04-21T11:59:12.007Z,36.7697
2019-04-21T12:00:15.754Z,33.9910
2019-04-21T12:01:18.832Z,36.7315
2019-04-21T12:02:21.560Z,34.4244
2019-04-21T12:03:24.771Z,35.8389
2019-04-21T12:04:27.503Z,35.1446
2019-04-21T12:05:30.167Z,42.0111
2019-04-21T12:06:40.959Z,38.7106
2019-04-21T12:07:43.097Z,40.3586
2019-04-21T12:08:49.445Z,31.1330
2019-04-21T12:09:55.395Z,32.7916
2019-04-21T12:10:58.191Z,33.7758
2019-04-21T12:12:01.275Z,36.5942
2019-04-21T12:13:07.233Z,35.6573
2019-04-21T12:14:09.988Z,34.4854
2019-04-21T12:15:14.284Z,36.1105
2019-04-21T12:16:17.198Z,36.5255
2019-04-21T12:17:20.961Z,35.2087
2019-04-21T12:18:27.820Z,34.2153
2019-04-21T12:19:32.956Z,39.0692
2019-04-21T12:20:37.550Z,35.0347
2019-04-21T12:21:53.446Z,33.3730
2019-04-21T12:22:50.977Z,33.2433
2019-04-21T12:23:54.379Z,35.7198
2019-04-21T12:24:57.702Z,38.6236
2019-04-21T12:26:01.373Z,34.0871
2019-04-21T12:27:05.644Z,36.6949
2019-04-21T12:28:08.216Z,33.3349
2019-04-21T12:29:11.177Z,33.2082
2019-04-21T12:30:15.708Z,33.8750
2019-04-21T12:31:18.795Z,34.7402
2019-04-21T12:32:22.217Z,35.0469
2019-04-21T12:33:24.417Z,37.3449
2019-04-21T12:34:28.088Z,32.2377
2019-04-21T12:35:31.201Z,31.5236
2019-04-21T12:36:38.475Z,40.7752
2019-04-21T12:37:42.650Z,33.9620
2019-04-21T12:38:53.937Z,34.8104
2019-04-21T12:39:56.852Z,36.5209
2019-04-21T12:41:00.489Z,30.9468
2019-04-21T12:42:03.204Z,33.6339
2019-04-21T12:43:06.812Z,29.9626
2019-04-21T12:44:10.805Z,30.2373
2019-04-21T12:45:15.262Z,30.6752
2019-04-21T12:46:18.293Z,31.5038
2019-04-21T12:47:21.765Z,29.3492
2019-04-21T12:48:24.199Z,31.1849
2019-04-21T12:49:27.593Z,30.6615
2019-04-21T12:50:30.225Z,36.1227
2019-04-21T12:51:33.756Z,36.9146
2019-04-21T12:52:35.721Z,31.3939
2019-04-21T12:53:39.396Z,33.6461
2019-04-21T12:54:43.930Z,33.0007
2019-04-21T12:55:48.111Z,32.3003
2019-04-21T12:56:51.710Z,30.0298
2019-04-21T12:57:55.241Z,29.7429
2019-04-21T12:58:59.445Z,35.9442
2019-04-21T13:00:02.870Z,30.5013
2019-04-21T13:01:07.100Z,32.6802
2019-04-21T13:02:32.209Z,29.6544
2019-04-21T13:03:35.194Z,31.2261
2019-04-21T13:04:38.202Z,32.3278
2019-04-21T13:05:41.192Z,27.8416
2019-04-21T13:06:45.595Z,29.2927
2019-04-21T13:08:09.323Z,27.4769
2019-04-21T13:09:14.990Z,29.4865
2019-04-21T13:10:20.357Z,28.2506
2019-04-21T13:11:23.414Z,28.7037
2019-04-21T13:12:26.920Z,27.4067
2019-04-21T13:13:32.101Z,27.0695
2019-04-21T13:14:35.830Z,32.1050
2019-04-21T13:15:39.802Z,33.0922
2019-04-21T13:16:43.454Z,34.6716
2019-04-21T13:17:47.353Z,26.5797
2019-04-21T13:18:51.223Z,33.2067
2019-04-21T13:19:54.108Z,28.1575
2019-04-21T13:20:59.392Z,27.1885
2019-04-21T13:22:05.876Z,25.2461
2019-04-21T13:23:10.127Z,27.9240
2019-04-21T13:24:13.744Z,24.5182
2019-04-21T13:25:16.186Z,25.0126
2019-04-21T13:26:30.554Z,27.2190
2019-04-21T13:27:27.193Z,25.7679
2019-04-21T13:28:32.469Z,27.7333
2019-04-21T13:29:36.360Z,33.7896
2019-04-21T13:30:40.198Z,34.3023
2019-04-21T13:31:44.419Z,31.2718
2019-04-21T13:32:47.215Z,26.9856
2019-04-21T13:33:50.324Z,26.2318
2019-04-21T13:34:53.186Z,26.0258
2019-04-21T13:35:57.221Z,30.2052
2019-04-21T13:37:01.417Z,27.3564
2019-04-21T13:38:04.683Z,27.4617
2019-04-21T13:39:37.792Z,27.4250
2019-04-21T13:40:34.151Z,27.0191
2019-04-21T13:41:40.878Z,25.5085
2019-04-21T13:42:38.356Z,26.7811
2019-04-21T13:43:39.310Z,28.6427
2019-04-21T13:44:42.199Z,31.3664
2019-04-21T13:45:45.821Z,28.2597
2019-04-21T13:46:49.191Z,28.0217
2019-04-21T13:47:52.637Z,26.2776
2019-04-21T13:48:55.187Z,31.2703
2019-04-21T13:49:59.854Z,26.7842
2019-04-21T13:51:05.037Z,25.6779
2019-04-21T13:52:08.944Z,26.7674
2019-04-21T13:53:12.481Z,26.2165
2019-04-21T13:54:15.696Z,34.2275
2019-04-21T13:55:19.371Z,25.9144
2019-04-21T13:56:22.713Z,26.5660
2019-04-21T13:57:26.329Z,27.1885
2019-04-21T13:58:30.367Z,25.5253
2019-04-21T13:59:34.285Z,26.3554
2019-04-21T14:00:37.955Z,29.2256
2019-04-21T14:01:41.823Z,26.8666
2019-04-21T14:02:44.781Z,27.2663
2019-04-21T14:03:47.447Z,28.6656
2019-04-21T14:04:51.665Z,28.8258
2019-04-21T14:05:54.236Z,31.3939
2019-04-21T14:06:58.292Z,29.7383
2019-04-21T14:08:01.193Z,25.5497
2019-04-21T14:09:05.271Z,24.5838
2019-04-21T14:10:10.418Z,27.1183
2019-04-21T14:11:15.582Z,28.2643
2019-04-21T14:12:19.205Z,36.7178
2019-04-21T14:13:22.870Z,34.7875
2019-04-21T14:14:26.174Z,39.9283
2019-04-21T14:15:30.304Z,26.8162
2019-04-21T14:16:34.057Z,26.9810
2019-04-21T14:17:39.122Z,26.1295
2019-04-21T14:18:42.669Z,27.4403
2019-04-21T14:19:45.591Z,25.1453
2019-04-21T14:20:47.193Z,26.3310
2019-04-21T14:21:52.734Z,28.8441
2019-04-21T14:23:08.557Z,28.7572
2019-04-21T14:24:04.584Z,26.5064
2019-04-21T14:25:07.941Z,25.7313
2019-04-21T14:26:11.973Z,25.4124
2019-04-21T14:27:16.347Z,24.4266
2019-04-21T14:28:19.966Z,24.4465
2019-04-21T14:29:23.866Z,25.3376